Columbus, Ohio
Traffic Map
Current Weather Conditions
Columbus, Ohio
Broken Clouds
Broken Clouds
29°
Feels Like: 32°
Wind Chill: 29° Ceiling: 10000
Heat Index: 32° Visibility: 10mi
Dew Point: 22° Wind: 9mph
Humidity: 67% Direction: 10° (N)
Pressure: 29.91in Gusts: 0mph
Raw Report DataKCMH 191851Z 01008KT 10SM SCT039 SCT050 BKN100 BKN200 29/22 A2991 RMK AO2 LTG DSNT S SLP119 T02890222
Traffic Incident Summary
Active as of:
Severity:
Category:
InformationThere was an issue retrieving the traffic information for this location. Please try a different location or try again shortly.
Advertisements